sensor_id;sensor_type;location;lat;lon;timestamp;temperature;humidity
51029;DHT22;37054;52.054;8.600;2023-12-29T00:01:47;15.20;52.00
51029;DHT22;37054;52.054;8.600;2023-12-29T00:04:13;15.20;52.60
51029;DHT22;37054;52.054;8.600;2023-12-29T00:06:39;15.20;52.60
51029;DHT22;37054;52.054;8.600;2023-12-29T00:09:05;15.10;52.80
51029;DHT22;37054;52.054;8.600;2023-12-29T00:11:30;15.10;52.80
51029;DHT22;37054;52.054;8.600;2023-12-29T00:13:56;15.20;53.00
51029;DHT22;37054;52.054;8.600;2023-12-29T00:16:21;15.20;52.90
51029;DHT22;37054;52.054;8.600;2023-12-29T00:18:47;15.20;52.50
51029;DHT22;37054;52.054;8.600;2023-12-29T00:21:12;15.20;52.10
51029;DHT22;37054;52.054;8.600;2023-12-29T00:23:38;15.20;52.00
51029;DHT22;37054;52.054;8.600;2023-12-29T00:26:04;15.20;52.20
51029;DHT22;37054;52.054;8.600;2023-12-29T00:28:29;15.20;52.30
51029;DHT22;37054;52.054;8.600;2023-12-29T00:30:55;15.20;52.40
51029;DHT22;37054;52.054;8.600;2023-12-29T00:33:20;15.30;51.90
51029;DHT22;37054;52.054;8.600;2023-12-29T00:35:46;15.30;52.30
51029;DHT22;37054;52.054;8.600;2023-12-29T00:38:11;15.30;52.60
51029;DHT22;37054;52.054;8.600;2023-12-29T00:40:37;15.30;52.60
51029;DHT22;37054;52.054;8.600;2023-12-29T00:43:03;15.30;52.40
51029;DHT22;37054;52.054;8.600;2023-12-29T00:45:29;15.40;51.80
51029;DHT22;37054;52.054;8.600;2023-12-29T00:48:01;15.40;52.40
51029;DHT22;37054;52.054;8.600;2023-12-29T00:50:27;15.40;52.70
51029;DHT22;37054;52.054;8.600;2023-12-29T00:52:52;15.30;52.90
51029;DHT22;37054;52.054;8.600;2023-12-29T00:55:18;15.30;53.60
51029;DHT22;37054;52.054;8.600;2023-12-29T00:57:44;15.10;54.60
51029;DHT22;37054;52.054;8.600;2023-12-29T01:00:11;14.90;56.20
51029;DHT22;37054;52.054;8.600;2023-12-29T01:02:38;14.80;57.00
51029;DHT22;37054;52.054;8.600;2023-12-29T01:05:04;14.60;58.00
51029;DHT22;37054;52.054;8.600;2023-12-29T01:07:29;14.50;58.60
51029;DHT22;37054;52.054;8.600;2023-12-29T01:09:55;14.40;58.90
51029;DHT22;37054;52.054;8.600;2023-12-29T01:12:20;14.40;59.60
51029;DHT22;37054;52.054;8.600;2023-12-29T01:14:46;14.40;59.80
51029;DHT22;37054;52.054;8.600;2023-12-29T01:17:11;14.40;59.70
51029;DHT22;37054;52.054;8.600;2023-12-29T01:19:37;14.40;59.80
51029;DHT22;37054;52.054;8.600;2023-12-29T01:22:02;14.40;60.10
51029;DHT22;37054;52.054;8.600;2023-12-29T01:24:28;14.40;59.90
51029;DHT22;37054;52.054;8.600;2023-12-29T01:26:54;14.50;59.70
51029;DHT22;37054;52.054;8.600;2023-12-29T01:29:19;14.50;59.60
51029;DHT22;37054;52.054;8.600;2023-12-29T01:31:45;14.40;59.70
51029;DHT22;37054;52.054;8.600;2023-12-29T01:34:10;14.40;60.10
51029;DHT22;37054;52.054;8.600;2023-12-29T01:36:36;14.40;60.30
51029;DHT22;37054;52.054;8.600;2023-12-29T01:39:02;14.40;60.30
51029;DHT22;37054;52.054;8.600;2023-12-29T01:41:29;14.40;60.10
51029;DHT22;37054;52.054;8.600;2023-12-29T01:46:25;14.50;59.50
51029;DHT22;37054;52.054;8.600;2023-12-29T01:48:51;14.60;59.20
51029;DHT22;37054;52.054;8.600;2023-12-29T01:51:17;14.60;59.20
51029;DHT22;37054;52.054;8.600;2023-12-29T01:53:44;14.70;59.10
51029;DHT22;37054;52.054;8.600;2023-12-29T01:56:10;14.70;58.80
51029;DHT22;37054;52.054;8.600;2023-12-29T01:58:36;14.80;58.60
51029;DHT22;37054;52.054;8.600;2023-12-29T02:01:02;14.80;58.50
51029;DHT22;37054;52.054;8.600;2023-12-29T02:03:28;14.80;58.10
51029;DHT22;37054;52.054;8.600;2023-12-29T02:05:55;14.90;57.80
51029;DHT22;37054;52.054;8.600;2023-12-29T02:08:22;15.00;57.20
51029;DHT22;37054;52.054;8.600;2023-12-29T02:10:48;15.00;57.20
51029;DHT22;37054;52.054;8.600;2023-12-29T02:13:14;15.10;57.00
51029;DHT22;37054;52.054;8.600;2023-12-29T02:15:40;15.00;57.30
51029;DHT22;37054;52.054;8.600;2023-12-29T02:18:08;15.10;57.10
51029;DHT22;37054;52.054;8.600;2023-12-29T02:20:35;15.10;57.00
51029;DHT22;37054;52.054;8.600;2023-12-29T02:23:02;15.10;56.50
51029;DHT22;37054;52.054;8.600;2023-12-29T02:25:27;15.10;57.20
51029;DHT22;37054;52.054;8.600;2023-12-29T02:30:38;15.20;56.50
51029;DHT22;37054;52.054;8.600;2023-12-29T02:33:13;15.20;56.40
51029;DHT22;37054;52.054;8.600;2023-12-29T02:35:42;15.20;55.70
51029;DHT22;37054;52.054;8.600;2023-12-29T02:38:08;15.20;55.60
51029;DHT22;37054;52.054;8.600;2023-12-29T02:40:35;15.20;55.50
51029;DHT22;37054;52.054;8.600;2023-12-29T02:43:00;15.20;55.40
51029;DHT22;37054;52.054;8.600;2023-12-29T02:45:27;15.30;55.50
51029;DHT22;37054;52.054;8.600;2023-12-29T02:47:53;15.20;56.20
51029;DHT22;37054;52.054;8.600;2023-12-29T02:50:18;15.00;56.90
51029;DHT22;37054;52.054;8.600;2023-12-29T02:52:44;14.80;58.40
51029;DHT22;37054;52.054;8.600;2023-12-29T02:55:10;14.60;60.10
51029;DHT22;37054;52.054;8.600;2023-12-29T02:57:35;14.40;61.70
51029;DHT22;37054;52.054;8.600;2023-12-29T03:00:01;14.20;63.00
51029;DHT22;37054;52.054;8.600;2023-12-29T03:02:27;14.00;64.00
51029;DHT22;37054;52.054;8.600;2023-12-29T03:04:53;13.80;64.70
51029;DHT22;37054;52.054;8.600;2023-12-29T03:07:18;13.80;65.30
51029;DHT22;37054;52.054;8.600;2023-12-29T03:09:44;13.60;65.80
51029;DHT22;37054;52.054;8.600;2023-12-29T03:12:09;13.50;66.40
51029;DHT22;37054;52.054;8.600;2023-12-29T03:14:35;13.50;66.70
51029;DHT22;37054;52.054;8.600;2023-12-29T03:17:00;13.40;67.10
51029;DHT22;37054;52.054;8.600;2023-12-29T03:19:26;13.40;67.30
51029;DHT22;37054;52.054;8.600;2023-12-29T03:21:52;13.30;67.60
51029;DHT22;37054;52.054;8.600;2023-12-29T03:24:19;13.30;67.70
51029;DHT22;37054;52.054;8.600;2023-12-29T03:26:45;13.30;68.00
51029;DHT22;37054;52.054;8.600;2023-12-29T03:29:11;13.30;68.20
51029;DHT22;37054;52.054;8.600;2023-12-29T03:31:36;13.30;68.10
51029;DHT22;37054;52.054;8.600;2023-12-29T03:34:02;13.30;68.20
51029;DHT22;37054;52.054;8.600;2023-12-29T03:36:27;13.30;68.30
51029;DHT22;37054;52.054;8.600;2023-12-29T03:38:53;13.30;68.40
51029;DHT22;37054;52.054;8.600;2023-12-29T03:41:18;13.30;68.40
51029;DHT22;37054;52.054;8.600;2023-12-29T03:43:44;13.30;68.60
51029;DHT22;37054;52.054;8.600;2023-12-29T03:46:20;13.30;68.70
51029;DHT22;37054;52.054;8.600;2023-12-29T03:48:46;13.30;68.80
51029;DHT22;37054;52.054;8.600;2023-12-29T03:51:12;13.30;68.90
51029;DHT22;37054;52.054;8.600;2023-12-29T03:53:38;13.30;68.80
51029;DHT22;37054;52.054;8.600;2023-12-29T03:56:16;13.30;68.50
51029;DHT22;37054;52.054;8.600;2023-12-29T03:58:42;13.30;68.60
51029;DHT22;37054;52.054;8.600;2023-12-29T04:01:16;13.30;68.70
51029;DHT22;37054;52.054;8.600;2023-12-29T04:03:42;13.30;68.80
51029;DHT22;37054;52.054;8.600;2023-12-29T04:06:09;13.20;68.90
51029;DHT22;37054;52.054;8.600;2023-12-29T04:08:35;13.30;69.20
51029;DHT22;37054;52.054;8.600;2023-12-29T04:11:01;13.30;69.30
51029;DHT22;37054;52.054;8.600;2023-12-29T04:13:27;13.30;69.30
51029;DHT22;37054;52.054;8.600;2023-12-29T04:15:52;13.40;69.30
51029;DHT22;37054;52.054;8.600;2023-12-29T04:18:20;13.40;69.10
51029;DHT22;37054;52.054;8.600;2023-12-29T04:20:46;13.30;69.30
51029;DHT22;37054;52.054;8.600;2023-12-29T04:23:11;13.30;69.30
51029;DHT22;37054;52.054;8.600;2023-12-29T04:25:37;13.30;69.30
51029;DHT22;37054;52.054;8.600;2023-12-29T04:28:03;13.30;69.40
51029;DHT22;37054;52.054;8.600;2023-12-29T04:30:29;13.20;69.70
51029;DHT22;37054;52.054;8.600;2023-12-29T04:32:54;13.20;69.70
51029;DHT22;37054;52.054;8.600;2023-12-29T04:35:20;13.20;69.80
51029;DHT22;37054;52.054;8.600;2023-12-29T04:37:45;13.20;69.90
51029;DHT22;37054;52.054;8.600;2023-12-29T04:40:12;13.20;70.00
51029;DHT22;37054;52.054;8.600;2023-12-29T04:42:37;13.20;70.00
51029;DHT22;37054;52.054;8.600;2023-12-29T04:45:04;13.20;70.00
51029;DHT22;37054;52.054;8.600;2023-12-29T04:47:30;13.20;70.10
51029;DHT22;37054;52.054;8.600;2023-12-29T04:49:55;13.10;70.10
51029;DHT22;37054;52.054;8.600;2023-12-29T04:52:21;13.10;70.20
51029;DHT22;37054;52.054;8.600;2023-12-29T04:54:47;13.20;70.10
51029;DHT22;37054;52.054;8.600;2023-12-29T04:57:12;13.10;70.30
51029;DHT22;37054;52.054;8.600;2023-12-29T04:59:38;13.20;70.30
51029;DHT22;37054;52.054;8.600;2023-12-29T05:02:03;13.20;70.40
51029;DHT22;37054;52.054;8.600;2023-12-29T05:04:29;13.20;70.60
51029;DHT22;37054;52.054;8.600;2023-12-29T05:06:54;13.20;70.60
51029;DHT22;37054;52.054;8.600;2023-12-29T05:09:20;13.30;70.60
51029;DHT22;37054;52.054;8.600;2023-12-29T05:11:46;13.30;70.50
51029;DHT22;37054;52.054;8.600;2023-12-29T05:14:11;13.40;70.50
51029;DHT22;37054;52.054;8.600;2023-12-29T05:16:37;13.40;70.50
51029;DHT22;37054;52.054;8.600;2023-12-29T05:19:02;13.40;70.40
51029;DHT22;37054;52.054;8.600;2023-12-29T05:21:28;13.50;70.40
51029;DHT22;37054;52.054;8.600;2023-12-29T05:23:53;13.50;70.40
51029;DHT22;37054;52.054;8.600;2023-12-29T05:26:19;13.50;70.20
51029;DHT22;37054;52.054;8.600;2023-12-29T05:28:44;13.50;70.00
51029;DHT22;37054;52.054;8.600;2023-12-29T05:31:10;13.60;70.00
51029;DHT22;37054;52.054;8.600;2023-12-29T05:33:36;13.60;70.00
51029;DHT22;37054;52.054;8.600;2023-12-29T05:36:09;13.60;70.10
51029;DHT22;37054;52.054;8.600;2023-12-29T05:38:38;13.70;70.00
51029;DHT22;37054;52.054;8.600;2023-12-29T05:41:05;13.70;70.00
51029;DHT22;37054;52.054;8.600;2023-12-29T05:43:32;13.70;70.00
51029;DHT22;37054;52.054;8.600;2023-12-29T05:45:59;13.70;69.90
51029;DHT22;37054;52.054;8.600;2023-12-29T05:48:25;13.80;69.80
51029;DHT22;37054;52.054;8.600;2023-12-29T05:50:51;13.80;69.80
51029;DHT22;37054;52.054;8.600;2023-12-29T05:53:16;13.80;69.60
51029;DHT22;37054;52.054;8.600;2023-12-29T05:55:43;13.80;69.50
51029;DHT22;37054;52.054;8.600;2023-12-29T05:58:09;13.80;69.50
51029;DHT22;37054;52.054;8.600;2023-12-29T06:00:36;13.90;69.50
51029;DHT22;37054;52.054;8.600;2023-12-29T06:03:02;13.90;69.50
51029;DHT22;37054;52.054;8.600;2023-12-29T06:05:29;13.90;69.50
51029;DHT22;37054;52.054;8.600;2023-12-29T06:07:55;14.00;69.30
51029;DHT22;37054;52.054;8.600;2023-12-29T06:10:20;14.00;69.40
51029;DHT22;37054;52.054;8.600;2023-12-29T06:12:46;14.00;69.40
51029;DHT22;37054;52.054;8.600;2023-12-29T06:15:12;14.00;69.30
51029;DHT22;37054;52.054;8.600;2023-12-29T06:17:38;14.00;69.10
51029;DHT22;37054;52.054;8.600;2023-12-29T06:20:06;14.00;69.10
51029;DHT22;37054;52.054;8.600;2023-12-29T06:22:32;14.00;69.00
51029;DHT22;37054;52.054;8.600;2023-12-29T06:24:58;14.00;69.10
51029;DHT22;37054;52.054;8.600;2023-12-29T06:27:25;14.00;69.10
51029;DHT22;37054;52.054;8.600;2023-12-29T06:29:50;14.00;69.00
51029;DHT22;37054;52.054;8.600;2023-12-29T06:32:16;14.00;69.00
51029;DHT22;37054;52.054;8.600;2023-12-29T06:34:41;14.00;68.90
51029;DHT22;37054;52.054;8.600;2023-12-29T06:37:07;14.00;68.90
51029;DHT22;37054;52.054;8.600;2023-12-29T06:39:32;14.10;68.70
51029;DHT22;37054;52.054;8.600;2023-12-29T06:41:58;14.00;68.70
51029;DHT22;37054;52.054;8.600;2023-12-29T06:44:23;14.10;68.70
51029;DHT22;37054;52.054;8.600;2023-12-29T06:46:49;14.00;68.60
51029;DHT22;37054;52.054;8.600;2023-12-29T06:49:14;14.10;68.40
51029;DHT22;37054;52.054;8.600;2023-12-29T06:51:40;14.00;68.70
51029;DHT22;37054;52.054;8.600;2023-12-29T06:54:06;14.10;68.70
51029;DHT22;37054;52.054;8.600;2023-12-29T06:56:32;14.10;68.60
51029;DHT22;37054;52.054;8.600;2023-12-29T06:58:57;14.10;68.50
51029;DHT22;37054;52.054;8.600;2023-12-29T07:01:23;14.20;68.50
51029;DHT22;37054;52.054;8.600;2023-12-29T07:03:49;14.10;68.30
51029;DHT22;37054;52.054;8.600;2023-12-29T07:06:15;14.20;68.30
51029;DHT22;37054;52.054;8.600;2023-12-29T07:08:41;14.20;68.40
51029;DHT22;37054;52.054;8.600;2023-12-29T07:11:10;14.20;68.20
51029;DHT22;37054;52.054;8.600;2023-12-29T07:13:36;14.20;68.40
51029;DHT22;37054;52.054;8.600;2023-12-29T07:16:02;14.20;68.30
51029;DHT22;37054;52.054;8.600;2023-12-29T07:18:28;14.30;68.20
51029;DHT22;37054;52.054;8.600;2023-12-29T07:20:53;14.30;68.10
51029;DHT22;37054;52.054;8.600;2023-12-29T07:23:19;14.20;68.40
51029;DHT22;37054;52.054;8.600;2023-12-29T07:25:44;14.30;68.20
51029;DHT22;37054;52.054;8.600;2023-12-29T07:28:10;14.30;68.40
51029;DHT22;37054;52.054;8.600;2023-12-29T07:30:35;14.30;68.30
51029;DHT22;37054;52.054;8.600;2023-12-29T07:33:01;14.30;68.30
51029;DHT22;37054;52.054;8.600;2023-12-29T07:35:27;14.30;68.60
51029;DHT22;37054;52.054;8.600;2023-12-29T07:37:53;14.30;68.40
51029;DHT22;37054;52.054;8.600;2023-12-29T07:40:19;14.30;68.40
51029;DHT22;37054;52.054;8.600;2023-12-29T07:42:45;14.30;68.20
51029;DHT22;37054;52.054;8.600;2023-12-29T07:45:12;14.30;68.30
51029;DHT22;37054;52.054;8.600;2023-12-29T07:47:37;14.30;68.30
51029;DHT22;37054;52.054;8.600;2023-12-29T07:50:03;14.30;68.20
51029;DHT22;37054;52.054;8.600;2023-12-29T07:52:30;14.30;68.10
51029;DHT22;37054;52.054;8.600;2023-12-29T07:54:55;14.30;68.20
51029;DHT22;37054;52.054;8.600;2023-12-29T07:57:21;14.30;68.20
51029;DHT22;37054;52.054;8.600;2023-12-29T07:59:47;14.30;68.20
51029;DHT22;37054;52.054;8.600;2023-12-29T08:02:12;14.30;68.20
51029;DHT22;37054;52.054;8.600;2023-12-29T08:04:38;14.30;68.30
51029;DHT22;37054;52.054;8.600;2023-12-29T08:07:04;14.40;68.30
51029;DHT22;37054;52.054;8.600;2023-12-29T08:09:30;14.40;68.10
51029;DHT22;37054;52.054;8.600;2023-12-29T08:11:55;14.30;67.80
51029;DHT22;37054;52.054;8.600;2023-12-29T08:14:21;14.40;67.90
51029;DHT22;37054;52.054;8.600;2023-12-29T08:16:47;14.30;68.10
51029;DHT22;37054;52.054;8.600;2023-12-29T08:19:12;14.40;68.30
51029;DHT22;37054;52.054;8.600;2023-12-29T08:21:40;14.40;68.30
51029;DHT22;37054;52.054;8.600;2023-12-29T08:24:05;14.40;68.20
51029;DHT22;37054;52.054;8.600;2023-12-29T08:26:31;14.40;68.10
51029;DHT22;37054;52.054;8.600;2023-12-29T08:28:56;14.40;68.30
51029;DHT22;37054;52.054;8.600;2023-12-29T08:31:22;14.40;68.00
51029;DHT22;37054;52.054;8.600;2023-12-29T08:33:48;14.40;68.00
51029;DHT22;37054;52.054;8.600;2023-12-29T08:36:17;14.40;67.90
51029;DHT22;37054;52.054;8.600;2023-12-29T08:38:43;14.40;67.60
51029;DHT22;37054;52.054;8.600;2023-12-29T08:41:08;14.40;67.50
51029;DHT22;37054;52.054;8.600;2023-12-29T08:43:34;14.30;67.50
51029;DHT22;37054;52.054;8.600;2023-12-29T08:46:01;14.20;67.50
51029;DHT22;37054;52.054;8.600;2023-12-29T08:48:27;14.00;67.70
51029;DHT22;37054;52.054;8.600;2023-12-29T08:50:52;13.90;67.90
51029;DHT22;37054;52.054;8.600;2023-12-29T08:53:18;13.80;68.10
51029;DHT22;37054;52.054;8.600;2023-12-29T08:55:44;13.70;68.60
51029;DHT22;37054;52.054;8.600;2023-12-29T08:58:09;13.60;68.80
51029;DHT22;37054;52.054;8.600;2023-12-29T09:00:35;13.50;69.10
51029;DHT22;37054;52.054;8.600;2023-12-29T09:03:01;13.40;69.50
51029;DHT22;37054;52.054;8.600;2023-12-29T09:05:26;13.40;70.00
51029;DHT22;37054;52.054;8.600;2023-12-29T09:07:52;13.40;70.30
51029;DHT22;37054;52.054;8.600;2023-12-29T09:10:17;13.40;70.30
51029;DHT22;37054;52.054;8.600;2023-12-29T09:12:43;13.30;70.60
51029;DHT22;37054;52.054;8.600;2023-12-29T09:15:09;13.30;70.80
51029;DHT22;37054;52.054;8.600;2023-12-29T09:17:34;13.30;71.10
51029;DHT22;37054;52.054;8.600;2023-12-29T09:20:01;13.30;71.00
51029;DHT22;37054;52.054;8.600;2023-12-29T09:22:26;13.30;71.10
51029;DHT22;37054;52.054;8.600;2023-12-29T09:24:53;13.30;71.20
51029;DHT22;37054;52.054;8.600;2023-12-29T09:27:19;13.30;71.20
51029;DHT22;37054;52.054;8.600;2023-12-29T09:29:44;13.30;71.40
51029;DHT22;37054;52.054;8.600;2023-12-29T09:32:10;13.30;71.40
51029;DHT22;37054;52.054;8.600;2023-12-29T09:34:35;13.30;71.50
51029;DHT22;37054;52.054;8.600;2023-12-29T09:37:01;13.30;71.70
51029;DHT22;37054;52.054;8.600;2023-12-29T09:39:26;13.30;71.80
51029;DHT22;37054;52.054;8.600;2023-12-29T09:41:52;13.30;71.90
51029;DHT22;37054;52.054;8.600;2023-12-29T09:44:20;13.30;71.90
51029;DHT22;37054;52.054;8.600;2023-12-29T09:46:53;13.30;71.90
51029;DHT22;37054;52.054;8.600;2023-12-29T09:49:19;13.30;72.10
51029;DHT22;37054;52.054;8.600;2023-12-29T09:51:45;13.40;72.10
51029;DHT22;37054;52.054;8.600;2023-12-29T09:54:11;13.40;72.20
51029;DHT22;37054;52.054;8.600;2023-12-29T09:56:37;13.40;72.20
51029;DHT22;37054;52.054;8.600;2023-12-29T09:59:04;13.40;72.20
51029;DHT22;37054;52.054;8.600;2023-12-29T10:01:30;13.40;72.30
51029;DHT22;37054;52.054;8.600;2023-12-29T10:03:57;13.50;72.40
51029;DHT22;37054;52.054;8.600;2023-12-29T10:06:26;13.50;72.20
51029;DHT22;37054;52.054;8.600;2023-12-29T10:08:53;13.50;72.20
51029;DHT22;37054;52.054;8.600;2023-12-29T10:11:21;13.50;72.20
51029;DHT22;37054;52.054;8.600;2023-12-29T10:13:50;13.50;72.20
51029;DHT22;37054;52.054;8.600;2023-12-29T10:16:37;13.50;72.30
51029;DHT22;37054;52.054;8.600;2023-12-29T10:22:08;13.60;72.40
51029;DHT22;37054;52.054;8.600;2023-12-29T10:24:35;13.60;72.40
51029;DHT22;37054;52.054;8.600;2023-12-29T10:27:01;13.70;72.30
51029;DHT22;37054;52.054;8.600;2023-12-29T10:29:27;13.70;72.30
51029;DHT22;37054;52.054;8.600;2023-12-29T10:31:53;13.70;72.30
51029;DHT22;37054;52.054;8.600;2023-12-29T10:34:19;13.80;72.40
51029;DHT22;37054;52.054;8.600;2023-12-29T10:36:51;13.80;72.20
51029;DHT22;37054;52.054;8.600;2023-12-29T10:39:17;13.90;72.40
51029;DHT22;37054;52.054;8.600;2023-12-29T10:41:43;13.90;72.40
51029;DHT22;37054;52.054;8.600;2023-12-29T10:44:08;14.00;72.50
51029;DHT22;37054;52.054;8.600;2023-12-29T10:46:34;14.10;72.50
51029;DHT22;37054;52.054;8.600;2023-12-29T10:49:10;14.20;72.30
51029;DHT22;37054;52.054;8.600;2023-12-29T10:51:36;14.30;72.40
51029;DHT22;37054;52.054;8.600;2023-12-29T10:54:05;14.40;72.20
51029;DHT22;37054;52.054;8.600;2023-12-29T10:56:34;14.40;72.10
51029;DHT22;37054;52.054;8.600;2023-12-29T10:59:01;14.50;72.00
51029;DHT22;37054;52.054;8.600;2023-12-29T11:01:32;14.60;72.00
51029;DHT22;37054;52.054;8.600;2023-12-29T11:04:05;14.60;71.70
51029;DHT22;37054;52.054;8.600;2023-12-29T11:06:44;14.70;71.60
51029;DHT22;37054;52.054;8.600;2023-12-29T11:09:12;14.70;71.60
51029;DHT22;37054;52.054;8.600;2023-12-29T11:11:37;14.70;71.40
51029;DHT22;37054;52.054;8.600;2023-12-29T11:14:03;14.80;71.30
51029;DHT22;37054;52.054;8.600;2023-12-29T11:16:29;14.80;71.30
51029;DHT22;37054;52.054;8.600;2023-12-29T11:18:58;14.90;71.30
51029;DHT22;37054;52.054;8.600;2023-12-29T11:21:26;14.90;71.40
51029;DHT22;37054;52.054;8.600;2023-12-29T11:23:52;14.90;71.20
51029;DHT22;37054;52.054;8.600;2023-12-29T11:26:18;14.90;71.10
51029;DHT22;37054;52.054;8.600;2023-12-29T11:28:46;15.00;71.00
51029;DHT22;37054;52.054;8.600;2023-12-29T11:31:12;14.90;71.20
51029;DHT22;37054;52.054;8.600;2023-12-29T11:33:43;14.90;71.00
51029;DHT22;37054;52.054;8.600;2023-12-29T11:36:20;15.00;71.00
51029;DHT22;37054;52.054;8.600;2023-12-29T11:38:58;14.90;70.90
51029;DHT22;37054;52.054;8.600;2023-12-29T11:44:00;14.80;71.00
51029;DHT22;37054;52.054;8.600;2023-12-29T11:46:33;14.70;71.00
51029;DHT22;37054;52.054;8.600;2023-12-29T11:48:59;14.60;70.70
51029;DHT22;37054;52.054;8.600;2023-12-29T11:51:41;14.50;71.30
51029;DHT22;37054;52.054;8.600;2023-12-29T11:54:10;14.40;71.60
51029;DHT22;37054;52.054;8.600;2023-12-29T11:56:46;14.40;71.60
51029;DHT22;37054;52.054;8.600;2023-12-29T11:59:13;14.40;71.80
51029;DHT22;37054;52.054;8.600;2023-12-29T12:01:39;14.30;72.00
51029;DHT22;37054;52.054;8.600;2023-12-29T12:04:10;14.30;72.10
51029;DHT22;37054;52.054;8.600;2023-12-29T12:06:50;14.40;72.00
51029;DHT22;37054;52.054;8.600;2023-12-29T12:09:24;14.40;72.10
51029;DHT22;37054;52.054;8.600;2023-12-29T12:11:50;14.40;72.20
51029;DHT22;37054;52.054;8.600;2023-12-29T12:14:53;14.50;72.10
51029;DHT22;37054;52.054;8.600;2023-12-29T12:17:32;14.40;72.20
51029;DHT22;37054;52.054;8.600;2023-12-29T12:22:24;14.50;72.40
51029;DHT22;37054;52.054;8.600;2023-12-29T12:25:00;14.60;72.60
51029;DHT22;37054;52.054;8.600;2023-12-29T12:27:27;14.70;72.60
51029;DHT22;37054;52.054;8.600;2023-12-29T12:29:54;14.70;72.30
51029;DHT22;37054;52.054;8.600;2023-12-29T12:32:27;14.80;72.30
51029;DHT22;37054;52.054;8.600;2023-12-29T12:34:53;14.80;72.30
51029;DHT22;37054;52.054;8.600;2023-12-29T12:37:24;14.80;72.10
51029;DHT22;37054;52.054;8.600;2023-12-29T12:39:50;14.80;72.10
51029;DHT22;37054;52.054;8.600;2023-12-29T12:42:16;14.80;71.90
51029;DHT22;37054;52.054;8.600;2023-12-29T12:45:11;14.80;72.10
51029;DHT22;37054;52.054;8.600;2023-12-29T12:47:51;14.90;72.00
51029;DHT22;37054;52.054;8.600;2023-12-29T12:50:18;14.90;71.80
51029;DHT22;37054;52.054;8.600;2023-12-29T12:52:44;14.90;71.80
51029;DHT22;37054;52.054;8.600;2023-12-29T12:55:11;14.90;71.60
51029;DHT22;37054;52.054;8.600;2023-12-29T12:57:37;14.90;71.50
51029;DHT22;37054;52.054;8.600;2023-12-29T13:00:03;15.00;71.40
51029;DHT22;37054;52.054;8.600;2023-12-29T13:02:31;15.00;71.30
51029;DHT22;37054;52.054;8.600;2023-12-29T13:04:58;14.90;71.10
51029;DHT22;37054;52.054;8.600;2023-12-29T13:07:24;14.90;71.00
51029;DHT22;37054;52.054;8.600;2023-12-29T13:09:50;14.80;70.80
51029;DHT22;37054;52.054;8.600;2023-12-29T13:12:17;14.80;70.80
51029;DHT22;37054;52.054;8.600;2023-12-29T13:14:43;14.80;70.80
51029;DHT22;37054;52.054;8.600;2023-12-29T13:17:11;14.80;70.80
51029;DHT22;37054;52.054;8.600;2023-12-29T13:19:37;14.70;70.90
51029;DHT22;37054;52.054;8.600;2023-12-29T13:22:07;14.80;70.90
51029;DHT22;37054;52.054;8.600;2023-12-29T13:24:34;14.80;70.90
51029;DHT22;37054;52.054;8.600;2023-12-29T13:27:05;14.70;70.70
51029;DHT22;37054;52.054;8.600;2023-12-29T13:29:31;14.70;70.80
51029;DHT22;37054;52.054;8.600;2023-12-29T13:37:24;14.70;71.00
51029;DHT22;37054;52.054;8.600;2023-12-29T13:42:34;14.70;70.80
51029;DHT22;37054;52.054;8.600;2023-12-29T13:45:01;14.70;70.90
51029;DHT22;37054;52.054;8.600;2023-12-29T13:47:29;14.70;71.10
51029;DHT22;37054;52.054;8.600;2023-12-29T13:49:55;14.70;71.00
51029;DHT22;37054;52.054;8.600;2023-12-29T13:52:21;14.70;70.80
51029;DHT22;37054;52.054;8.600;2023-12-29T13:54:46;14.70;70.70
51029;DHT22;37054;52.054;8.600;2023-12-29T13:57:12;14.70;70.70
51029;DHT22;37054;52.054;8.600;2023-12-29T13:59:38;14.70;70.70
51029;DHT22;37054;52.054;8.600;2023-12-29T14:02:24;14.70;70.60
51029;DHT22;37054;52.054;8.600;2023-12-29T14:05:11;14.60;70.60
51029;DHT22;37054;52.054;8.600;2023-12-29T14:07:37;14.60;70.60
51029;DHT22;37054;52.054;8.600;2023-12-29T14:10:08;14.60;70.50
51029;DHT22;37054;52.054;8.600;2023-12-29T14:12:34;14.60;70.50
51029;DHT22;37054;52.054;8.600;2023-12-29T14:15:04;14.50;70.50
51029;DHT22;37054;52.054;8.600;2023-12-29T14:17:30;14.50;70.60
51029;DHT22;37054;52.054;8.600;2023-12-29T14:19:56;14.50;70.50
51029;DHT22;37054;52.054;8.600;2023-12-29T14:22:26;14.50;70.50
51029;DHT22;37054;52.054;8.600;2023-12-29T14:25:02;14.40;70.60
51029;DHT22;37054;52.054;8.600;2023-12-29T14:27:29;14.40;70.60
51029;DHT22;37054;52.054;8.600;2023-12-29T14:29:54;14.40;70.60
51029;DHT22;37054;52.054;8.600;2023-12-29T14:32:20;14.40;70.60
51029;DHT22;37054;52.054;8.600;2023-12-29T14:34:48;14.40;70.50
51029;DHT22;37054;52.054;8.600;2023-12-29T14:37:21;14.40;70.60
51029;DHT22;37054;52.054;8.600;2023-12-29T14:39:51;14.40;70.60
51029;DHT22;37054;52.054;8.600;2023-12-29T14:42:16;14.40;70.50
51029;DHT22;37054;52.054;8.600;2023-12-29T14:44:42;14.40;70.50
51029;DHT22;37054;52.054;8.600;2023-12-29T14:47:10;14.40;70.60
51029;DHT22;37054;52.054;8.600;2023-12-29T14:49:37;14.40;70.40
51029;DHT22;37054;52.054;8.600;2023-12-29T14:52:03;14.40;70.30
51029;DHT22;37054;52.054;8.600;2023-12-29T14:54:28;14.30;70.40
51029;DHT22;37054;52.054;8.600;2023-12-29T14:56:54;14.30;70.30
51029;DHT22;37054;52.054;8.600;2023-12-29T14:59:20;14.30;70.20
51029;DHT22;37054;52.054;8.600;2023-12-29T15:01:46;14.20;70.00
51029;DHT22;37054;52.054;8.600;2023-12-29T15:04:11;14.20;70.00
51029;DHT22;37054;52.054;8.600;2023-12-29T15:06:39;14.10;70.10
51029;DHT22;37054;52.054;8.600;2023-12-29T15:09:04;14.10;70.00
51029;DHT22;37054;52.054;8.600;2023-12-29T15:11:31;14.00;69.90
51029;DHT22;37054;52.054;8.600;2023-12-29T15:13:57;14.00;69.90
51029;DHT22;37054;52.054;8.600;2023-12-29T15:16:22;13.90;69.90
51029;DHT22;37054;52.054;8.600;2023-12-29T15:18:47;13.90;69.90
51029;DHT22;37054;52.054;8.600;2023-12-29T15:21:13;13.80;69.90
51029;DHT22;37054;52.054;8.600;2023-12-29T15:23:38;13.80;70.20
51029;DHT22;37054;52.054;8.600;2023-12-29T15:26:04;13.80;70.20
51029;DHT22;37054;52.054;8.600;2023-12-29T15:28:30;13.80;70.20
51029;DHT22;37054;52.054;8.600;2023-12-29T15:30:55;13.80;70.20
51029;DHT22;37054;52.054;8.600;2023-12-29T15:33:21;13.80;70.10
51029;DHT22;37054;52.054;8.600;2023-12-29T15:35:47;13.70;70.20
51029;DHT22;37054;52.054;8.600;2023-12-29T15:38:13;13.70;70.10
51029;DHT22;37054;52.054;8.600;2023-12-29T15:40:39;13.60;70.20
51029;DHT22;37054;52.054;8.600;2023-12-29T15:43:04;13.50;70.50
51029;DHT22;37054;52.054;8.600;2023-12-29T15:45:32;13.50;70.50
51029;DHT22;37054;52.054;8.600;2023-12-29T15:47:58;13.50;70.60
51029;DHT22;37054;52.054;8.600;2023-12-29T15:50:24;13.50;70.60